createdAt,value
2023-05-14T00:01:59.016Z,3.33
2023-05-14T00:04:29.517Z,3.42
2023-05-14T00:06:57.146Z,2.97
2023-05-14T00:09:27.830Z,3.30
2023-05-14T00:11:55.126Z,3.17
2023-05-14T00:14:22.728Z,3.28
2023-05-14T00:16:50.973Z,3.65
2023-05-14T00:19:18.247Z,3.95
2023-05-14T00:21:49.088Z,3.90
2023-05-14T00:24:16.242Z,3.35
2023-05-14T00:26:43.538Z,4.03
2023-05-14T00:29:11.662Z,3.75
2023-05-14T00:31:38.896Z,3.85
2023-05-14T00:34:06.649Z,4.53
2023-05-14T00:36:37.066Z,4.75
2023-05-14T00:39:04.880Z,4.50
2023-05-14T00:41:32.241Z,5.00
2023-05-14T00:44:00.056Z,4.43
2023-05-14T00:46:28.613Z,4.40
2023-05-14T00:48:56.674Z,4.30
2023-05-14T00:51:25.531Z,4.80
2023-05-14T00:53:53.706Z,4.13
2023-05-14T00:56:21.764Z,3.95
2023-05-14T00:58:49.950Z,4.20
2023-05-14T01:01:18.182Z,4.20
2023-05-14T01:03:46.201Z,4.18
2023-05-14T01:06:29.341Z,4.15
2023-05-14T01:09:24.714Z,3.15
2023-05-14T01:12:06.371Z,3.47
2023-05-14T01:14:52.878Z,3.25
2023-05-14T01:17:22.977Z,4.28
2023-05-14T01:19:52.757Z,3.45
2023-05-14T01:22:20.233Z,6.85
2023-05-14T01:24:48.173Z,4.50
2023-05-14T01:27:35.915Z,3.83
2023-05-14T01:30:25.233Z,4.30
2023-05-14T01:32:57.878Z,2.95
2023-05-14T01:35:27.874Z,3.78
2023-05-14T01:38:03.965Z,3.33
2023-05-14T01:40:36.456Z,4.22
2023-05-14T01:43:05.136Z,3.17
2023-05-14T01:45:35.231Z,3.92
2023-05-14T01:48:02.547Z,3.72
2023-05-14T01:50:30.235Z,3.08
2023-05-14T01:52:57.861Z,4.13
2023-05-14T01:55:27.022Z,4.13
2023-05-14T01:57:54.925Z,3.65
2023-05-14T02:00:23.877Z,3.30
2023-05-14T02:02:51.587Z,3.63
2023-05-14T02:05:19.424Z,3.72
2023-05-14T02:07:46.621Z,4.10
2023-05-14T02:10:13.955Z,5.47
2023-05-14T02:12:41.776Z,5.22
2023-05-14T02:15:11.163Z,4.70
2023-05-14T02:17:42.652Z,4.90
2023-05-14T02:20:10.548Z,4.93
2023-05-14T02:22:48.769Z,6.47
2023-05-14T02:25:16.692Z,5.63
2023-05-14T02:27:43.989Z,6.03
2023-05-14T02:30:12.129Z,5.93
2023-05-14T02:32:40.041Z,5.28
2023-05-14T02:35:08.422Z,4.53
2023-05-14T02:37:36.057Z,5.38
2023-05-14T02:40:06.755Z,5.20
2023-05-14T02:42:34.644Z,5.65
2023-05-14T02:45:02.730Z,5.57
2023-05-14T02:47:34.773Z,4.35
2023-05-14T02:50:04.995Z,4.63
2023-05-14T02:52:33.541Z,4.32
2023-05-14T02:55:01.194Z,4.30
2023-05-14T02:57:28.424Z,4.15
2023-05-14T02:59:58.545Z,4.18
2023-05-14T03:02:29.574Z,5.03
2023-05-14T03:04:57.473Z,4.05
2023-05-14T03:07:24.664Z,4.43
2023-05-14T03:09:51.852Z,4.97
2023-05-14T03:12:22.796Z,5.07
2023-05-14T03:14:50.975Z,4.22
2023-05-14T03:17:18.233Z,5.07
2023-05-14T03:19:45.669Z,4.53
2023-05-14T03:22:23.298Z,4.50
2023-05-14T03:24:50.452Z,3.78
2023-05-14T03:27:17.712Z,4.40
2023-05-14T03:29:44.948Z,4.35
2023-05-14T03:32:12.238Z,4.10
2023-05-14T03:34:39.800Z,4.05
2023-05-14T03:37:07.305Z,3.47
2023-05-14T03:39:34.504Z,4.47
2023-05-14T03:42:01.786Z,4.00
2023-05-14T03:44:35.409Z,4.75
2023-05-14T03:47:02.838Z,4.18
2023-05-14T03:49:30.163Z,4.00
2023-05-14T03:51:59.845Z,3.95
2023-05-14T03:54:27.564Z,4.30
2023-05-14T03:56:55.183Z,3.67
2023-05-14T03:59:22.440Z,4.13
2023-05-14T04:01:50.698Z,3.58
2023-05-14T04:04:17.849Z,4.25
2023-05-14T04:06:48.153Z,3.75
2023-05-14T04:09:18.779Z,3.63
2023-05-14T04:11:46.820Z,4.50
2023-05-14T04:14:17.084Z,3.03
2023-05-14T04:16:44.461Z,3.53
2023-05-14T04:19:12.602Z,3.20
2023-05-14T04:21:40.579Z,3.20
2023-05-14T04:24:10.549Z,2.80
2023-05-14T04:26:37.800Z,2.30
2023-05-14T04:29:07.410Z,2.42
2023-05-14T04:31:34.631Z,2.70
2023-05-14T04:34:01.949Z,2.33
2023-05-14T04:36:29.219Z,2.40
2023-05-14T04:38:56.679Z,2.58
2023-05-14T04:41:25.915Z,2.55
2023-05-14T04:43:56.733Z,3.22
2023-05-14T04:46:23.962Z,2.30
2023-05-14T04:48:52.001Z,2.40
2023-05-14T04:51:19.744Z,2.20
2023-05-14T04:53:47.485Z,2.58
2023-05-14T04:56:15.405Z,2.38
2023-05-14T04:58:42.709Z,2.60
2023-05-14T05:01:10.597Z,2.00
2023-05-14T05:03:38.069Z,1.98
2023-05-14T05:06:08.214Z,1.95
2023-05-14T05:08:36.817Z,1.80
2023-05-14T05:11:04.793Z,2.00
2023-05-14T05:13:32.753Z,2.22
2023-05-14T05:15:59.878Z,2.30
2023-05-14T05:18:27.966Z,1.92
2023-05-14T05:20:57.410Z,1.90
2023-05-14T05:23:25.120Z,1.95
2023-05-14T05:25:52.561Z,1.63
2023-05-14T05:28:21.166Z,1.75
2023-05-14T05:30:51.514Z,2.13
2023-05-14T05:33:22.153Z,1.73
2023-05-14T05:38:20.973Z,1.85
2023-05-14T05:40:48.405Z,2.05
2023-05-14T05:43:16.253Z,1.67
2023-05-14T05:45:43.845Z,1.55
2023-05-14T05:48:14.242Z,1.60
2023-05-14T05:50:41.725Z,1.80
2023-05-14T05:53:08.893Z,1.50
2023-05-14T05:55:36.188Z,1.77
2023-05-14T05:58:03.294Z,1.33
2023-05-14T06:00:31.329Z,1.35
2023-05-14T06:02:59.411Z,1.38
2023-05-14T06:05:27.849Z,1.38
2023-05-14T06:07:57.582Z,1.65
2023-05-14T06:10:25.458Z,1.35
2023-05-14T06:12:52.895Z,1.20
2023-05-14T06:15:20.860Z,1.40
2023-05-14T06:17:48.321Z,1.35
2023-05-14T06:20:16.551Z,1.13
2023-05-14T06:22:44.681Z,1.45
2023-05-14T06:25:12.109Z,1.60
2023-05-14T06:27:40.337Z,1.40
2023-05-14T06:30:08.313Z,1.33
2023-05-14T06:32:39.064Z,1.20
2023-05-14T06:35:06.922Z,1.30
2023-05-14T06:37:34.611Z,1.20
2023-05-14T06:40:02.446Z,1.30
2023-05-14T06:42:33.555Z,1.23
2023-05-14T06:45:00.901Z,1.50
2023-05-14T06:47:28.155Z,1.15
2023-05-14T06:49:56.810Z,1.30
2023-05-14T06:52:24.487Z,1.60
2023-05-14T06:54:52.402Z,1.65
2023-05-14T06:57:19.524Z,1.17
2023-05-14T06:59:46.661Z,1.17
2023-05-14T07:02:13.960Z,1.27
2023-05-14T07:04:47.631Z,1.40
2023-05-14T07:07:18.915Z,1.30
2023-05-14T07:09:49.195Z,1.23
2023-05-14T07:12:16.600Z,1.10
2023-05-14T07:14:47.019Z,1.25
2023-05-14T07:17:15.472Z,1.30
2023-05-14T07:19:42.927Z,1.30
2023-05-14T07:22:09.964Z,1.00
2023-05-14T07:24:37.714Z,1.40
2023-05-14T07:27:05.123Z,1.40
2023-05-14T07:29:37.558Z,1.10
2023-05-14T07:32:05.432Z,1.23
2023-05-14T07:34:42.375Z,1.70
2023-05-14T07:37:09.730Z,1.20
2023-05-14T07:39:36.782Z,1.90
2023-05-14T07:42:05.770Z,1.42
2023-05-14T07:44:33.319Z,0.93
2023-05-14T07:47:00.682Z,1.10
2023-05-14T07:49:28.032Z,1.15
2023-05-14T07:51:55.522Z,1.15
2023-05-14T07:54:22.811Z,1.30
2023-05-14T07:56:50.611Z,1.33
2023-05-14T07:59:17.921Z,1.30
2023-05-14T08:01:48.892Z,1.20
2023-05-14T08:04:16.646Z,1.17
2023-05-14T08:06:44.148Z,1.33
2023-05-14T08:09:11.482Z,1.20
2023-05-14T08:11:39.972Z,1.23
2023-05-14T08:14:07.406Z,1.17
2023-05-14T08:16:34.859Z,1.30
2023-05-14T08:19:02.253Z,1.08
2023-05-14T08:21:29.607Z,1.25
2023-05-14T08:23:57.081Z,1.40
2023-05-14T08:26:24.490Z,1.15
2023-05-14T08:28:51.898Z,1.10
2023-05-14T08:31:19.713Z,1.20
2023-05-14T08:33:47.707Z,1.23
2023-05-14T08:36:15.147Z,1.20
2023-05-14T08:38:42.977Z,1.52
2023-05-14T08:41:12.134Z,1.42
2023-05-14T08:44:12.034Z,1.00
2023-05-14T08:46:40.503Z,1.10
2023-05-14T08:49:17.642Z,1.30
2023-05-14T08:51:50.932Z,1.60
2023-05-14T08:54:18.914Z,1.08
2023-05-14T08:56:46.751Z,1.20
2023-05-14T08:59:14.392Z,1.13
2023-05-14T09:01:52.133Z,1.08
2023-05-14T09:04:24.702Z,1.40
2023-05-14T09:06:56.843Z,1.40
2023-05-14T09:09:24.420Z,1.38
2023-05-14T09:11:53.017Z,1.33
2023-05-14T09:14:22.593Z,1.23
2023-05-14T09:16:53.594Z,1.38
2023-05-14T09:19:21.771Z,1.20
2023-05-14T09:22:02.964Z,1.35
2023-05-14T09:24:30.467Z,1.38
2023-05-14T09:26:58.968Z,1.30
2023-05-14T09:29:28.595Z,1.02
2023-05-14T09:31:57.724Z,1.20
2023-05-14T09:34:38.183Z,1.50
2023-05-14T09:37:10.255Z,1.55
2023-05-14T09:39:41.111Z,1.02
2023-05-14T09:44:38.444Z,1.30
2023-05-14T09:47:06.501Z,1.17
2023-05-14T09:49:34.739Z,1.10
2023-05-14T09:52:03.790Z,1.33
2023-05-14T09:54:34.736Z,1.23
2023-05-14T09:57:02.150Z,1.30
2023-05-14T09:59:29.432Z,1.30
2023-05-14T10:01:58.508Z,1.55
2023-05-14T10:04:28.742Z,1.00
2023-05-14T10:06:57.171Z,1.50
2023-05-14T10:09:27.904Z,1.50
2023-05-14T10:12:01.689Z,1.13
2023-05-14T10:14:41.299Z,1.15
2023-05-14T10:17:18.300Z,1.65
2023-05-14T10:19:57.548Z,1.35
2023-05-14T10:22:31.235Z,1.75
2023-05-14T10:24:59.028Z,1.40
2023-05-14T10:27:27.608Z,1.20
2023-05-14T10:29:56.421Z,1.42
2023-05-14T10:32:25.871Z,1.35
2023-05-14T10:34:54.090Z,1.38
2023-05-14T10:37:24.636Z,1.60
2023-05-14T10:39:55.919Z,1.60
2023-05-14T10:42:26.704Z,1.35
2023-05-14T10:45:02.324Z,1.58
2023-05-14T10:47:35.989Z,1.67
2023-05-14T10:50:10.211Z,1.35
2023-05-14T10:52:37.910Z,1.27
2023-05-14T10:55:10.357Z,1.60
2023-05-14T10:57:39.256Z,1.77
2023-05-14T11:00:09.198Z,1.30
2023-05-14T11:02:43.920Z,1.67
2023-05-14T11:05:17.926Z,1.50
2023-05-14T11:07:48.177Z,1.20
2023-05-14T11:10:20.210Z,1.55
2023-05-14T11:12:49.943Z,1.67
2023-05-14T11:15:20.590Z,1.30
2023-05-14T11:17:50.280Z,1.45
2023-05-14T11:20:18.415Z,1.60
2023-05-14T11:22:49.472Z,1.23
2023-05-14T11:27:48.236Z,1.10
2023-05-14T11:30:18.215Z,1.50
2023-05-14T11:32:51.291Z,1.50
2023-05-14T11:35:21.136Z,1.50
2023-05-14T11:37:52.958Z,1.77
2023-05-14T11:40:20.470Z,1.80
2023-05-14T11:42:51.348Z,1.60
2023-05-14T11:45:26.582Z,1.48
2023-05-14T11:47:54.975Z,1.25
2023-05-14T11:50:27.558Z,1.50
2023-05-14T11:52:57.877Z,1.33
2023-05-14T11:55:31.006Z,1.33
2023-05-14T11:57:59.116Z,1.65
2023-05-14T12:00:27.530Z,1.50
2023-05-14T12:02:55.014Z,1.48
2023-05-14T12:05:22.726Z,1.48
2023-05-14T12:07:49.907Z,1.30
2023-05-14T12:10:17.467Z,1.30
2023-05-14T12:12:48.887Z,1.50
2023-05-14T12:15:19.300Z,1.60
2023-05-14T12:17:53.492Z,1.85
2023-05-14T12:20:21.107Z,1.40
2023-05-14T12:22:48.671Z,1.20
2023-05-14T12:25:16.406Z,1.27
2023-05-14T12:27:45.827Z,1.30
2023-05-14T12:32:45.332Z,1.60
2023-05-14T12:35:12.754Z,1.42
2023-05-14T12:37:41.391Z,1.40
2023-05-14T12:40:12.184Z,1.40
2023-05-14T12:42:39.204Z,1.00
2023-05-14T12:45:13.168Z,1.15
2023-05-14T12:47:41.889Z,1.33
2023-05-14T12:50:09.603Z,1.65
2023-05-14T12:52:40.127Z,1.40
2023-05-14T12:55:09.855Z,1.50
2023-05-14T12:57:39.473Z,1.33
2023-05-14T13:00:12.973Z,1.73
2023-05-14T13:02:42.677Z,1.42
2023-05-14T13:05:13.588Z,1.35
2023-05-14T13:07:50.660Z,1.40
2023-05-14T13:10:20.798Z,1.65
2023-05-14T13:12:52.888Z,1.45
2023-05-14T13:15:23.705Z,1.50
2023-05-14T13:20:18.703Z,1.73
2023-05-14T13:22:46.648Z,1.40
2023-05-14T13:25:14.516Z,1.60
2023-05-14T13:27:41.975Z,1.35
2023-05-14T13:30:10.277Z,1.45
2023-05-14T13:32:38.922Z,1.70
2023-05-14T13:35:08.046Z,1.25
2023-05-14T13:37:35.856Z,1.40
2023-05-14T13:40:09.598Z,1.10
2023-05-14T13:42:37.702Z,1.30
2023-05-14T13:45:05.594Z,1.67
2023-05-14T13:47:34.838Z,1.27
2023-05-14T13:50:02.168Z,1.23
2023-05-14T13:52:33.346Z,1.40
2023-05-14T13:55:01.633Z,1.40
2023-05-14T13:57:31.605Z,1.58
2023-05-14T14:00:02.584Z,1.60
2023-05-14T14:02:34.185Z,1.35
2023-05-14T14:05:02.176Z,1.25
2023-05-14T14:07:32.576Z,1.33
2023-05-14T14:10:03.360Z,1.48
2023-05-14T14:12:33.307Z,1.20
2023-05-14T14:15:02.876Z,1.30
2023-05-14T14:17:34.984Z,1.70
2023-05-14T14:20:04.375Z,1.30
2023-05-14T14:22:32.473Z,1.30
2023-05-14T14:25:00.332Z,1.55
2023-05-14T14:27:28.161Z,1.20
2023-05-14T14:29:57.243Z,1.20
2023-05-14T14:32:24.496Z,1.40
2023-05-14T14:34:51.862Z,1.67
2023-05-14T14:37:23.185Z,1.40
2023-05-14T14:39:50.997Z,1.27
2023-05-14T14:42:18.580Z,1.33
2023-05-14T14:44:45.867Z,1.52
2023-05-14T14:47:13.539Z,1.38
2023-05-14T14:49:41.119Z,1.85
2023-05-14T14:52:09.410Z,1.83
2023-05-14T14:54:37.133Z,1.60
2023-05-14T14:57:04.542Z,1.77
2023-05-14T14:59:31.834Z,1.60
2023-05-14T15:01:59.789Z,1.60
2023-05-14T15:04:26.953Z,1.48
2023-05-14T15:06:54.453Z,1.60
2023-05-14T15:09:24.013Z,1.63
2023-05-14T15:11:51.497Z,2.15
2023-05-14T15:14:18.696Z,1.30
2023-05-14T15:16:48.161Z,1.58
2023-05-14T15:19:17.622Z,1.52
2023-05-14T15:21:45.016Z,1.50
2023-05-14T15:24:13.646Z,1.63
2023-05-14T15:26:41.655Z,1.48
2023-05-14T15:29:09.607Z,1.30
2023-05-14T15:31:36.858Z,1.45
2023-05-14T15:34:04.308Z,1.70
2023-05-14T15:36:32.532Z,1.40
2023-05-14T15:39:00.618Z,1.73
2023-05-14T15:41:29.135Z,1.55
2023-05-14T15:43:57.579Z,1.42
2023-05-14T15:46:26.259Z,1.75
2023-05-14T15:48:53.860Z,1.73
2023-05-14T15:51:21.469Z,1.70
2023-05-14T15:53:48.851Z,1.80
2023-05-14T15:56:16.372Z,1.90
2023-05-14T15:58:44.320Z,1.73
2023-05-14T16:01:14.875Z,1.50
2023-05-14T16:03:42.550Z,1.73
2023-05-14T16:06:10.368Z,1.40
2023-05-14T16:08:38.536Z,1.80
2023-05-14T16:11:06.491Z,1.38
2023-05-14T16:13:35.147Z,1.55
2023-05-14T16:16:02.852Z,1.23
2023-05-14T16:18:30.425Z,1.42
2023-05-14T16:20:58.041Z,1.90
2023-05-14T16:23:27.640Z,1.50
2023-05-14T16:25:55.338Z,1.45
2023-05-14T16:28:23.030Z,1.73
2023-05-14T16:30:50.779Z,2.10
2023-05-14T16:33:17.964Z,1.60
2023-05-14T16:35:46.044Z,1.60
2023-05-14T16:38:13.278Z,1.52
2023-05-14T16:40:42.253Z,1.60
2023-05-14T16:43:09.548Z,1.45
2023-05-14T16:45:37.534Z,1.40
2023-05-14T16:48:05.036Z,1.55
2023-05-14T16:50:32.676Z,1.55
2023-05-14T16:53:00.033Z,1.90
2023-05-14T16:55:27.297Z,1.55
2023-05-14T16:57:58.361Z,1.80
2023-05-14T17:00:26.502Z,1.42
2023-05-14T17:02:54.553Z,1.63
2023-05-14T17:05:24.598Z,1.60
2023-05-14T17:07:53.135Z,1.40
2023-05-14T17:10:20.723Z,1.85
2023-05-14T17:12:48.037Z,1.75
2023-05-14T17:15:15.565Z,1.95
2023-05-14T17:17:42.957Z,1.65
2023-05-14T17:20:10.665Z,1.60
2023-05-14T17:22:39.000Z,1.95
2023-05-14T17:25:06.846Z,1.88
2023-05-14T17:27:34.032Z,2.17
2023-05-14T17:30:01.739Z,1.80
2023-05-14T17:32:34.883Z,1.75
2023-05-14T17:35:03.299Z,1.90
2023-05-14T17:37:34.209Z,1.77
2023-05-14T17:40:01.405Z,1.55
2023-05-14T17:42:30.711Z,1.90
2023-05-14T17:44:58.048Z,1.90
2023-05-14T17:47:25.275Z,1.95
2023-05-14T17:49:53.092Z,2.15
2023-05-14T17:52:20.822Z,1.88
2023-05-14T17:54:50.991Z,1.73
2023-05-14T17:57:24.219Z,1.67
2023-05-14T17:59:51.345Z,1.70
2023-05-14T18:02:21.400Z,1.75
2023-05-14T18:04:49.085Z,1.80
2023-05-14T18:07:16.705Z,2.22
2023-05-14T18:09:44.736Z,2.00
2023-05-14T18:12:12.053Z,2.03
2023-05-14T18:14:39.425Z,2.15
2023-05-14T18:17:06.861Z,1.80
2023-05-14T18:19:34.374Z,2.05
2023-05-14T18:22:01.806Z,2.47
2023-05-14T18:24:31.302Z,2.10
2023-05-14T18:26:59.664Z,2.20
2023-05-14T18:29:27.158Z,2.28
2023-05-14T18:31:54.630Z,2.08
2023-05-14T18:34:24.530Z,2.13
2023-05-14T18:37:02.504Z,2.55
2023-05-14T18:39:30.103Z,3.30
2023-05-14T18:41:57.788Z,2.58
2023-05-14T18:44:27.556Z,2.10
2023-05-14T18:46:55.815Z,2.90
2023-05-14T18:49:22.948Z,2.03
2023-05-14T18:51:50.640Z,2.38
2023-05-14T18:54:18.100Z,1.92
2023-05-14T18:56:47.517Z,2.00
2023-05-14T18:59:15.505Z,2.13
2023-05-14T19:01:42.802Z,2.13
2023-05-14T19:04:10.476Z,2.10
2023-05-14T19:06:40.672Z,2.33
2023-05-14T19:09:08.260Z,2.63
2023-05-14T19:11:35.788Z,2.00
2023-05-14T19:14:03.742Z,2.45
2023-05-14T19:16:34.634Z,2.10
2023-05-14T19:19:02.442Z,2.17
2023-05-14T19:21:29.835Z,1.90
2023-05-14T19:23:57.425Z,2.10
2023-05-14T19:26:25.167Z,2.05
2023-05-14T19:28:58.793Z,2.42
2023-05-14T19:31:27.269Z,2.38
2023-05-14T19:33:55.063Z,2.28
2023-05-14T19:36:22.499Z,2.33
2023-05-14T19:38:49.660Z,2.47
2023-05-14T19:41:16.992Z,2.30
2023-05-14T19:43:44.686Z,2.20
2023-05-14T19:46:11.987Z,2.50
2023-05-14T19:48:39.259Z,2.20
2023-05-14T19:51:06.683Z,2.60
2023-05-14T19:53:34.006Z,2.30
2023-05-14T19:56:02.624Z,2.33
2023-05-14T19:58:30.347Z,2.70
2023-05-14T20:00:58.543Z,2.05
2023-05-14T20:03:26.372Z,3.00
2023-05-14T20:05:55.138Z,2.20
2023-05-14T20:08:22.496Z,2.03
2023-05-14T20:10:49.818Z,2.50
2023-05-14T20:13:21.018Z,2.15
2023-05-14T20:15:49.148Z,1.92
2023-05-14T20:18:17.195Z,2.67
2023-05-14T20:20:44.631Z,2.40
2023-05-14T20:23:14.894Z,2.28
2023-05-14T20:25:43.423Z,2.50
2023-05-14T20:28:11.063Z,2.08
2023-05-14T20:30:38.624Z,2.53
2023-05-14T20:33:06.667Z,2.80
2023-05-14T20:35:34.152Z,2.25
2023-05-14T20:38:02.370Z,2.47
2023-05-14T20:40:29.761Z,2.72
2023-05-14T20:42:56.906Z,2.83
2023-05-14T20:45:24.673Z,2.50
2023-05-14T20:47:52.708Z,3.33
2023-05-14T20:50:23.271Z,2.70
2023-05-14T20:52:50.752Z,2.80
2023-05-14T20:55:19.120Z,2.65
2023-05-14T20:57:49.923Z,3.85
2023-05-14T21:00:19.756Z,2.63
2023-05-14T21:02:50.693Z,2.13
2023-05-14T21:05:18.238Z,2.70
2023-05-14T21:07:45.859Z,2.67
2023-05-14T21:10:13.242Z,2.90
2023-05-14T21:12:42.674Z,3.20
2023-05-14T21:15:11.262Z,3.47
2023-05-14T21:17:38.733Z,4.28
2023-05-14T21:20:06.810Z,3.67
2023-05-14T21:22:34.252Z,3.92
2023-05-14T21:25:01.819Z,3.80
2023-05-14T21:27:31.175Z,3.08
2023-05-14T21:29:58.676Z,3.35
2023-05-14T21:32:26.535Z,3.53
2023-05-14T21:34:54.602Z,3.47
2023-05-14T21:37:22.237Z,3.95
2023-05-14T21:39:49.726Z,3.20
2023-05-14T21:42:20.253Z,3.17
2023-05-14T21:44:48.870Z,4.18
2023-05-14T21:47:16.651Z,4.80
2023-05-14T21:49:44.266Z,3.72
2023-05-14T21:52:12.125Z,3.95
2023-05-14T21:54:42.429Z,4.05
2023-05-14T21:57:09.880Z,3.65
2023-05-14T21:59:40.648Z,3.70
2023-05-14T22:02:08.346Z,5.00
2023-05-14T22:04:36.066Z,5.22
2023-05-14T22:07:06.751Z,4.25
2023-05-14T22:09:37.122Z,3.80
2023-05-14T22:12:05.631Z,3.53
2023-05-14T22:14:33.079Z,3.10
2023-05-14T22:17:00.482Z,3.45
2023-05-14T22:19:28.057Z,3.08
2023-05-14T22:21:55.723Z,3.22
2023-05-14T22:24:23.021Z,3.47
2023-05-14T22:26:50.997Z,3.22
2023-05-14T22:29:18.228Z,2.95
2023-05-14T22:31:46.263Z,3.80
2023-05-14T22:34:13.965Z,2.90
2023-05-14T22:36:41.074Z,3.60
2023-05-14T22:39:09.691Z,3.08
2023-05-14T22:41:38.026Z,3.67
2023-05-14T22:44:06.009Z,3.35
2023-05-14T22:46:33.258Z,3.88
2023-05-14T22:49:00.429Z,4.38
2023-05-14T22:51:27.484Z,4.72
2023-05-14T22:53:54.662Z,3.88
2023-05-14T22:56:22.531Z,4.85
2023-05-14T22:58:49.654Z,4.20
2023-05-14T23:01:17.113Z,4.55
2023-05-14T23:03:50.279Z,6.53
2023-05-14T23:06:17.735Z,6.55
2023-05-14T23:08:45.238Z,5.25
2023-05-14T23:11:13.494Z,5.25
2023-05-14T23:13:41.849Z,4.63
2023-05-14T23:16:09.356Z,3.95
2023-05-14T23:18:36.999Z,4.60
2023-05-14T23:21:05.031Z,4.03
2023-05-14T23:23:35.079Z,3.45
2023-05-14T23:26:02.537Z,4.13
2023-05-14T23:28:30.691Z,3.95
2023-05-14T23:30:58.307Z,4.40
2023-05-14T23:33:25.696Z,3.50
2023-05-14T23:35:53.702Z,3.40
2023-05-14T23:38:24.643Z,3.20
2023-05-14T23:40:52.030Z,4.50
2023-05-14T23:43:19.266Z,4.55
2023-05-14T23:45:46.713Z,4.55
2023-05-14T23:48:15.134Z,5.00
2023-05-14T23:50:42.615Z,5.80
2023-05-14T23:53:09.803Z,5.53
2023-05-14T23:55:37.501Z,6.13
2023-05-14T23:58:07.624Z,6.25
